createdAt,value
2019-03-08T00:00:51.849Z,5.03
2019-03-08T00:03:21.992Z,4.60
2019-03-08T00:05:52.088Z,4.00
2019-03-08T00:08:21.859Z,4.33
2019-03-08T00:10:50.942Z,3.90
2019-03-08T00:13:20.697Z,3.90
2019-03-08T00:15:49.824Z,3.77
2019-03-08T00:18:19.183Z,3.87
2019-03-08T00:20:48.343Z,3.43
2019-03-08T00:23:18.455Z,3.17
2019-03-08T00:25:47.839Z,3.47
2019-03-08T00:28:17.326Z,3.07
2019-03-08T00:30:47.212Z,3.13
2019-03-08T00:33:17.002Z,2.90
2019-03-08T00:35:46.143Z,3.37
2019-03-08T00:38:16.354Z,3.00
2019-03-08T00:40:46.022Z,3.13
2019-03-08T00:43:15.481Z,2.77
2019-03-08T00:45:45.208Z,2.77
2019-03-08T00:48:14.750Z,3.50
2019-03-08T00:50:44.340Z,2.47
2019-03-08T00:53:15.673Z,2.97
2019-03-08T00:55:45.500Z,2.60
2019-03-08T00:58:15.025Z,2.93
2019-03-08T01:00:45.185Z,2.73
2019-03-08T01:03:14.889Z,3.00
2019-03-08T01:05:44.067Z,3.30
2019-03-08T01:08:13.805Z,2.67
2019-03-08T01:10:43.609Z,3.00
2019-03-08T01:13:13.125Z,2.50
2019-03-08T01:15:42.612Z,3.10
2019-03-08T01:18:12.453Z,2.53
2019-03-08T01:20:41.834Z,2.53
2019-03-08T01:23:10.900Z,2.40
2019-03-08T01:25:40.696Z,2.50
2019-03-08T01:28:11.867Z,2.53
2019-03-08T01:30:41.380Z,2.53
2019-03-08T01:33:10.908Z,2.57
2019-03-08T01:35:40.705Z,2.40
2019-03-08T01:38:12.102Z,2.20
2019-03-08T01:40:46.851Z,2.33
2019-03-08T01:43:15.853Z,2.00
2019-03-08T01:45:45.755Z,2.20
2019-03-08T01:48:15.764Z,2.20
2019-03-08T01:50:44.941Z,2.10
2019-03-08T01:53:14.279Z,2.10
2019-03-08T01:55:43.355Z,1.93
2019-03-08T01:58:12.445Z,2.50
2019-03-08T02:00:42.712Z,2.00
2019-03-08T02:03:11.786Z,2.43
2019-03-08T02:05:43.866Z,2.33
2019-03-08T02:08:19.672Z,2.50
2019-03-08T02:10:49.134Z,2.47
2019-03-08T02:13:18.903Z,2.60
2019-03-08T02:15:48.080Z,2.20
2019-03-08T02:18:17.427Z,2.03
2019-03-08T02:20:46.591Z,2.67
2019-03-08T02:23:16.121Z,2.50
2019-03-08T02:25:45.752Z,2.50
2019-03-08T02:28:15.594Z,2.23
2019-03-08T02:30:45.685Z,2.53
2019-03-08T02:33:14.738Z,2.80
2019-03-08T02:35:44.088Z,2.70
2019-03-08T02:38:13.874Z,2.27
2019-03-08T02:40:44.449Z,2.50
2019-03-08T02:43:16.248Z,2.27
2019-03-08T02:45:46.014Z,2.20
2019-03-08T02:48:15.775Z,2.40
2019-03-08T02:50:45.295Z,2.60
2019-03-08T02:53:15.112Z,2.80
2019-03-08T02:55:44.746Z,2.43
2019-03-08T02:58:14.692Z,2.53
2019-03-08T03:00:48.134Z,2.43
2019-03-08T03:03:18.566Z,2.50
2019-03-08T03:05:48.490Z,2.90
2019-03-08T03:08:18.201Z,2.70
2019-03-08T03:10:47.615Z,2.77
2019-03-08T03:13:17.018Z,2.63
2019-03-08T03:15:46.830Z,2.70
2019-03-08T03:18:16.854Z,2.60
2019-03-08T03:20:46.633Z,2.57
2019-03-08T03:23:16.077Z,2.53
2019-03-08T03:25:45.537Z,2.50
2019-03-08T03:28:15.039Z,2.80
2019-03-08T03:30:44.780Z,2.87
2019-03-08T03:33:14.727Z,2.87
2019-03-08T03:35:44.536Z,2.70
2019-03-08T03:38:14.092Z,2.87
2019-03-08T03:40:43.452Z,2.50
2019-03-08T03:43:13.294Z,2.80
2019-03-08T03:45:42.892Z,2.90
2019-03-08T03:48:12.362Z,2.87
2019-03-08T03:50:42.148Z,2.93
2019-03-08T03:53:11.619Z,3.07
2019-03-08T03:55:41.329Z,2.83
2019-03-08T03:58:11.226Z,3.27
2019-03-08T04:00:41.566Z,4.27
2019-03-08T04:03:11.394Z,3.23
2019-03-08T04:05:41.193Z,3.73
2019-03-08T04:08:10.626Z,3.53
2019-03-08T04:10:40.533Z,3.33
2019-03-08T04:13:10.758Z,3.83
2019-03-08T04:15:42.478Z,4.33
2019-03-08T04:18:12.498Z,4.13
2019-03-08T04:20:41.930Z,4.33
2019-03-08T04:23:11.146Z,4.57
2019-03-08T04:25:40.549Z,6.83
2019-03-08T04:28:10.064Z,6.43
2019-03-08T04:30:39.954Z,7.13
2019-03-08T04:33:09.127Z,7.63
2019-03-08T04:35:39.238Z,8.00
2019-03-08T04:38:08.689Z,7.90
2019-03-08T04:40:38.562Z,8.60
2019-03-08T04:43:08.160Z,8.50
2019-03-08T04:45:37.634Z,8.60
2019-03-08T04:48:07.453Z,8.27
2019-03-08T04:50:36.599Z,8.60
2019-03-08T04:53:06.455Z,8.73
2019-03-08T04:55:36.724Z,8.23
2019-03-08T04:58:05.892Z,6.77
2019-03-08T05:00:36.435Z,7.63
2019-03-08T05:03:06.660Z,6.83
2019-03-08T05:05:36.473Z,7.43
2019-03-08T05:08:06.604Z,7.07
2019-03-08T05:10:37.015Z,7.43
2019-03-08T05:13:06.800Z,7.13
2019-03-08T05:15:36.353Z,8.03
2019-03-08T05:18:06.569Z,7.20
2019-03-08T05:20:35.692Z,7.43
2019-03-08T05:23:05.190Z,7.73
2019-03-08T05:25:34.575Z,7.37
2019-03-08T05:28:04.928Z,7.43
2019-03-08T05:30:35.187Z,8.10
2019-03-08T05:33:04.907Z,8.00
2019-03-08T05:35:34.158Z,7.83
2019-03-08T05:38:03.557Z,7.97
2019-03-08T05:40:32.698Z,8.27
2019-03-08T05:43:03.981Z,8.40
2019-03-08T05:45:32.832Z,8.73
2019-03-08T05:48:02.262Z,8.23
2019-03-08T05:50:32.194Z,9.47
2019-03-08T05:53:01.280Z,7.63
2019-03-08T05:55:31.029Z,7.23
2019-03-08T05:58:00.853Z,6.73
2019-03-08T06:00:32.957Z,7.70
2019-03-08T06:03:02.936Z,6.27
2019-03-08T06:05:32.281Z,6.20
2019-03-08T06:08:02.463Z,5.93
2019-03-08T06:10:38.661Z,6.30
2019-03-08T06:13:08.461Z,6.53
2019-03-08T06:15:38.736Z,7.37
2019-03-08T06:18:08.434Z,6.23
2019-03-08T06:20:37.423Z,6.67
2019-03-08T06:23:07.482Z,7.40
2019-03-08T06:25:37.153Z,8.23
2019-03-08T06:28:06.968Z,8.67
2019-03-08T06:30:37.050Z,7.93
2019-03-08T06:33:06.758Z,7.77
2019-03-08T06:35:36.899Z,6.50
2019-03-08T06:38:06.437Z,6.33
2019-03-08T06:40:35.903Z,6.83
2019-03-08T06:43:05.426Z,6.27
2019-03-08T06:45:34.667Z,6.63
2019-03-08T06:48:04.565Z,6.70
2019-03-08T06:50:34.122Z,7.03
2019-03-08T06:53:04.207Z,7.17
2019-03-08T06:55:33.874Z,6.37
2019-03-08T06:58:04.903Z,6.97
2019-03-08T07:00:53.563Z,6.67
2019-03-08T07:03:22.748Z,5.40
2019-03-08T07:05:52.631Z,6.50
2019-03-08T07:08:22.677Z,7.10
2019-03-08T07:10:52.406Z,7.73
2019-03-08T07:13:22.210Z,7.03
2019-03-08T07:15:51.751Z,6.33
2019-03-08T07:18:21.597Z,6.33
2019-03-08T07:21:09.057Z,6.00
2019-03-08T07:24:03.458Z,6.40
2019-03-08T07:27:04.665Z,4.37
2019-03-08T07:29:51.090Z,4.20
2019-03-08T07:32:42.749Z,4.40
2019-03-08T07:35:49.177Z,4.60
2019-03-08T07:38:36.351Z,4.23
2019-03-08T07:41:30.788Z,4.80
2019-03-08T07:44:18.135Z,4.63
2019-03-08T07:47:16.199Z,4.17
2019-03-08T07:50:19.481Z,4.60
2019-03-08T07:53:01.068Z,4.83
2019-03-08T07:55:47.598Z,4.67
2019-03-08T07:58:47.464Z,4.73
2019-03-08T08:01:26.211Z,4.97
2019-03-08T08:04:20.269Z,4.40
2019-03-08T08:07:13.903Z,4.20
2019-03-08T08:10:05.098Z,4.80
2019-03-08T08:12:41.682Z,4.17
2019-03-08T08:15:38.828Z,4.17
2019-03-08T08:18:33.090Z,4.23
2019-03-08T08:21:22.565Z,4.10
2019-03-08T08:24:20.513Z,4.37
2019-03-08T08:27:08.544Z,4.50
2019-03-08T08:29:48.991Z,4.40
2019-03-08T08:32:46.248Z,3.60
2019-03-08T08:35:40.469Z,3.17
2019-03-08T08:38:25.994Z,3.03
2019-03-08T08:41:12.798Z,2.70
2019-03-08T08:43:55.761Z,2.53
2019-03-08T08:46:42.853Z,2.23
2019-03-08T08:49:23.793Z,2.57
2019-03-08T08:52:12.531Z,2.10
2019-03-08T08:54:54.046Z,2.13
2019-03-08T08:57:54.141Z,2.10
2019-03-08T09:00:46.047Z,2.67
2019-03-08T09:03:33.495Z,1.83
2019-03-08T09:06:10.268Z,1.77
2019-03-08T09:08:50.531Z,2.37
2019-03-08T09:11:45.922Z,2.20
2019-03-08T09:14:15.550Z,1.90
2019-03-08T09:17:10.174Z,2.30
2019-03-08T09:20:14.369Z,2.33
2019-03-08T09:22:56.065Z,2.37
2019-03-08T09:25:33.345Z,2.10
2019-03-08T09:28:24.810Z,2.00
2019-03-08T09:31:21.701Z,2.10
2019-03-08T09:34:13.226Z,2.20
2019-03-08T09:37:07.706Z,1.67
2019-03-08T09:40:01.874Z,2.13
2019-03-08T09:42:48.878Z,1.90
2019-03-08T09:45:35.099Z,1.50
2019-03-08T09:48:11.497Z,2.00
2019-03-08T09:50:50.940Z,1.70
2019-03-08T09:53:39.587Z,1.77
2019-03-08T09:56:27.878Z,2.07
2019-03-08T09:59:34.784Z,2.30
2019-03-08T10:02:15.188Z,2.00
2019-03-08T10:05:01.639Z,2.03
2019-03-08T10:07:39.754Z,2.23
2019-03-08T10:10:33.980Z,2.27
2019-03-08T10:13:14.858Z,2.40
2019-03-08T10:15:54.249Z,1.83
2019-03-08T10:18:54.947Z,1.47
2019-03-08T10:21:46.491Z,1.77
2019-03-08T10:24:35.303Z,1.90
2019-03-08T10:27:22.427Z,1.80
2019-03-08T10:30:03.763Z,1.80
2019-03-08T10:33:02.174Z,1.80
2019-03-08T10:35:53.636Z,2.10
2019-03-08T10:38:57.206Z,1.90
2019-03-08T10:41:37.331Z,2.10
2019-03-08T10:44:15.519Z,2.47
2019-03-08T10:47:07.607Z,3.37
2019-03-08T10:50:11.404Z,1.57
2019-03-08T10:52:59.478Z,1.80
2019-03-08T10:55:41.914Z,1.97
2019-03-08T10:58:28.283Z,1.97
2019-03-08T11:01:12.421Z,2.37
2019-03-08T11:03:51.593Z,1.90
2019-03-08T11:06:29.873Z,2.33
2019-03-08T11:09:14.801Z,3.03
2019-03-08T11:12:03.258Z,2.50
2019-03-08T11:14:54.768Z,2.03
2019-03-08T11:17:35.117Z,2.23
2019-03-08T11:20:22.324Z,2.00
2019-03-08T11:23:16.243Z,2.40
2019-03-08T11:26:00.347Z,2.03
2019-03-08T11:28:42.073Z,1.93
2019-03-08T11:31:29.544Z,2.33
2019-03-08T11:34:16.699Z,2.17
2019-03-08T11:37:04.349Z,3.37
2019-03-08T11:39:52.563Z,3.50
2019-03-08T11:42:27.949Z,2.37
2019-03-08T11:45:07.444Z,2.27
2019-03-08T11:47:53.963Z,2.90
2019-03-08T11:50:45.041Z,2.00
2019-03-08T11:53:45.502Z,2.67
2019-03-08T11:56:42.911Z,3.23
2019-03-08T11:59:33.807Z,2.67
2019-03-08T12:02:37.852Z,2.57
2019-03-08T12:05:34.021Z,2.17
2019-03-08T12:08:31.678Z,3.33
2019-03-08T12:11:23.925Z,2.80
2019-03-08T12:14:11.039Z,3.10
2019-03-08T12:17:08.676Z,3.30
2019-03-08T12:19:47.359Z,2.77
2019-03-08T12:22:34.865Z,2.67
2019-03-08T12:25:25.818Z,3.03
2019-03-08T12:28:14.974Z,2.70
2019-03-08T12:31:05.129Z,2.57
2019-03-08T12:33:41.811Z,6.77
2019-03-08T12:36:26.287Z,9.50
2019-03-08T12:39:33.160Z,5.60
2019-03-08T12:42:36.931Z,11.23
2019-03-08T12:45:32.332Z,4.73
2019-03-08T12:48:23.841Z,6.23
2019-03-08T12:51:20.138Z,7.53
2019-03-08T12:54:09.187Z,9.80
2019-03-08T12:57:06.723Z,9.80
2019-03-08T13:00:00.690Z,5.00
2019-03-08T13:02:58.769Z,2.87
2019-03-08T13:05:56.283Z,2.27
2019-03-08T13:08:45.284Z,2.83
2019-03-08T13:11:14.762Z,2.53
2019-03-08T13:13:44.680Z,1.83
2019-03-08T13:16:14.129Z,2.57
2019-03-08T13:18:43.302Z,2.50
2019-03-08T13:21:13.210Z,2.50
2019-03-08T13:23:43.230Z,2.50
2019-03-08T13:26:12.434Z,1.90
2019-03-08T13:28:41.743Z,1.87
2019-03-08T13:31:10.936Z,2.07
2019-03-08T13:33:40.787Z,1.83
2019-03-08T13:36:10.614Z,2.10
2019-03-08T13:38:40.342Z,2.50
2019-03-08T13:41:09.525Z,2.37
2019-03-08T13:43:39.611Z,2.00
2019-03-08T13:46:08.899Z,2.07
2019-03-08T13:48:38.720Z,2.70
2019-03-08T13:51:08.140Z,2.60
2019-03-08T13:53:37.643Z,2.47
2019-03-08T13:56:07.737Z,3.30
2019-03-08T13:58:37.921Z,2.93
2019-03-08T14:01:07.806Z,2.60
2019-03-08T14:03:37.210Z,2.97
2019-03-08T14:06:06.679Z,2.70
2019-03-08T14:08:36.145Z,2.40
2019-03-08T14:11:05.535Z,2.73
2019-03-08T14:13:35.144Z,2.40
2019-03-08T14:16:04.953Z,2.37
2019-03-08T14:18:34.444Z,2.60
2019-03-08T14:21:04.254Z,2.40
2019-03-08T14:23:33.780Z,3.17
2019-03-08T14:26:03.500Z,2.33
2019-03-08T14:28:33.938Z,2.77
2019-03-08T14:31:22.614Z,3.43
2019-03-08T14:33:52.639Z,3.17
2019-03-08T14:36:22.307Z,3.30
2019-03-08T14:38:51.749Z,2.87
2019-03-08T14:41:38.424Z,3.17
2019-03-08T14:44:16.772Z,2.93
2019-03-08T14:47:05.306Z,3.53
2019-03-08T14:49:35.750Z,4.63
2019-03-08T14:52:05.798Z,6.13
2019-03-08T14:54:35.172Z,6.27
2019-03-08T14:57:05.053Z,6.53
2019-03-08T14:59:34.668Z,5.80
2019-03-08T15:02:03.939Z,4.83
2019-03-08T15:04:34.080Z,8.00
2019-03-08T15:07:05.713Z,8.77
2019-03-08T15:09:35.787Z,14.23
2019-03-08T15:12:05.615Z,4.63
2019-03-08T15:14:35.334Z,4.83
2019-03-08T15:17:09.203Z,5.23
2019-03-08T15:19:40.420Z,4.97
2019-03-08T15:22:08.316Z,3.33
2019-03-08T15:24:38.624Z,6.73
2019-03-08T15:27:08.194Z,6.33
2019-03-08T15:29:37.592Z,4.60
2019-03-08T15:32:07.359Z,3.30
2019-03-08T15:34:36.767Z,3.50
2019-03-08T15:37:06.282Z,3.50
2019-03-08T15:39:36.006Z,2.80
2019-03-08T15:42:05.797Z,7.10
2019-03-08T15:44:35.610Z,4.03
2019-03-08T15:47:04.726Z,4.40
2019-03-08T15:49:34.561Z,3.63
2019-03-08T15:52:04.652Z,3.33
2019-03-08T15:54:34.583Z,3.67
2019-03-08T15:57:03.994Z,3.20
2019-03-08T15:59:33.177Z,3.97
2019-03-08T16:02:06.187Z,4.77
2019-03-08T16:04:33.801Z,4.27
2019-03-08T16:07:03.416Z,5.90
2019-03-08T16:09:33.230Z,5.53
2019-03-08T16:12:02.983Z,6.60
2019-03-08T16:14:32.408Z,5.83
2019-03-08T16:17:01.864Z,4.47
2019-03-08T16:19:50.767Z,4.43
2019-03-08T16:22:20.294Z,5.17
2019-03-08T16:24:49.367Z,5.80
2019-03-08T16:27:18.402Z,5.13
2019-03-08T16:29:48.870Z,4.87
2019-03-08T16:32:31.022Z,5.30
2019-03-08T16:35:00.808Z,6.07
2019-03-08T16:37:45.165Z,8.10
2019-03-08T16:40:42.849Z,9.50
2019-03-08T16:43:49.483Z,9.37
2019-03-08T16:46:28.170Z,7.93
2019-03-08T16:49:14.882Z,8.73
2019-03-08T16:52:12.562Z,7.47
2019-03-08T16:55:00.968Z,8.20
2019-03-08T16:57:58.068Z,7.00
2019-03-08T17:00:43.480Z,7.03
2019-03-08T17:03:27.473Z,8.17
2019-03-08T17:06:07.994Z,7.90
2019-03-08T17:08:56.885Z,8.07
2019-03-08T17:11:44.757Z,8.27
2019-03-08T17:14:21.942Z,8.17
2019-03-08T17:17:08.459Z,9.17
2019-03-08T17:20:03.981Z,9.20
2019-03-08T17:22:55.235Z,8.17
2019-03-08T17:25:47.045Z,7.07
2019-03-08T17:28:21.911Z,7.27
2019-03-08T17:31:02.804Z,8.50
2019-03-08T17:34:03.578Z,8.47
2019-03-08T17:36:50.517Z,8.37
2019-03-08T17:39:31.809Z,8.83
2019-03-08T17:42:18.655Z,9.13
2019-03-08T17:45:25.522Z,8.67
2019-03-08T17:48:04.749Z,7.60
2019-03-08T17:50:41.937Z,8.20
2019-03-08T17:53:36.420Z,7.87
2019-03-08T17:56:43.107Z,8.23
2019-03-08T17:59:46.603Z,8.53
2019-03-08T18:02:28.243Z,9.90
2019-03-08T18:05:04.857Z,11.03
2019-03-08T18:07:56.524Z,12.57
2019-03-08T18:10:44.774Z,12.87
2019-03-08T18:13:32.858Z,12.57
2019-03-08T18:16:10.473Z,12.27
2019-03-08T18:19:01.429Z,12.13
2019-03-08T18:21:48.601Z,13.20
2019-03-08T18:24:55.221Z,12.90
2019-03-08T18:27:46.971Z,11.23
2019-03-08T18:30:32.887Z,12.07
2019-03-08T18:33:26.988Z,12.33
2019-03-08T18:36:14.572Z,13.93
2019-03-08T18:38:54.301Z,14.03
2019-03-08T18:41:43.074Z,13.00
2019-03-08T18:44:26.143Z,14.30
2019-03-08T18:47:08.010Z,14.13
2019-03-08T18:49:57.541Z,13.90
2019-03-08T18:52:48.781Z,13.73
2019-03-08T18:55:36.645Z,12.80
2019-03-08T18:58:23.259Z,13.00
2019-03-08T19:00:59.974Z,12.33
2019-03-08T19:03:56.382Z,11.90
2019-03-08T19:06:45.019Z,13.33
2019-03-08T19:09:42.671Z,14.30
2019-03-08T19:12:31.150Z,16.17
2019-03-08T19:15:15.393Z,16.27
2019-03-08T19:18:18.781Z,16.90
2019-03-08T19:21:06.219Z,16.43
2019-03-08T19:23:54.346Z,15.97
2019-03-08T19:26:45.488Z,15.47
2019-03-08T19:29:32.667Z,15.10
2019-03-08T19:32:26.749Z,15.07
2019-03-08T19:35:17.491Z,16.23
2019-03-08T19:38:20.731Z,16.23
2019-03-08T19:41:06.056Z,14.73
2019-03-08T19:43:46.355Z,14.83
2019-03-08T19:46:25.768Z,15.27
2019-03-08T19:49:23.785Z,15.33
2019-03-08T19:52:15.211Z,14.10
2019-03-08T19:55:06.971Z,16.73
2019-03-08T19:57:54.907Z,17.33
2019-03-08T20:00:31.936Z,20.37
2019-03-08T20:03:21.451Z,20.20
2019-03-08T20:06:16.044Z,18.17
2019-03-08T20:09:11.268Z,14.70
2019-03-08T20:12:14.955Z,11.30
2019-03-08T20:14:59.096Z,11.17
2019-03-08T20:22:07.993Z,8.47
2019-03-08T20:25:43.504Z,5.60
2019-03-08T20:28:44.665Z,5.80
2019-03-08T20:31:32.554Z,5.53
2019-03-08T20:34:34.643Z,5.10
2019-03-08T20:37:15.113Z,5.07
2019-03-08T20:39:57.268Z,5.43
2019-03-08T20:42:39.663Z,6.07
2019-03-08T20:45:23.434Z,6.03
2019-03-08T20:52:05.135Z,6.93
2019-03-08T20:54:35.518Z,7.20
2019-03-08T20:57:05.435Z,7.20
2019-03-08T20:59:35.619Z,7.87
2019-03-08T21:02:04.933Z,6.67
2019-03-08T21:04:34.754Z,7.53
2019-03-08T21:07:04.757Z,6.03
2019-03-08T21:09:34.809Z,6.43
2019-03-08T21:12:04.546Z,6.50
2019-03-08T21:14:34.176Z,5.97
2019-03-08T21:17:03.297Z,7.20
2019-03-08T21:19:32.714Z,6.03
2019-03-08T21:22:01.818Z,6.40
2019-03-08T21:24:32.157Z,6.80
2019-03-08T21:27:01.586Z,7.60
2019-03-08T21:29:31.059Z,9.60
2019-03-08T21:32:00.697Z,11.03
2019-03-08T21:34:29.876Z,12.30
2019-03-08T21:36:59.579Z,12.40
2019-03-08T21:39:29.423Z,8.13
2019-03-08T21:41:58.502Z,9.53
2019-03-08T21:44:27.583Z,8.13
2019-03-08T21:46:57.010Z,9.13
2019-03-08T21:49:26.884Z,9.23
2019-03-08T21:51:56.389Z,8.43
2019-03-08T21:54:25.542Z,10.07
2019-03-08T21:56:55.525Z,10.77
2019-03-08T21:59:24.700Z,12.13
2019-03-08T22:01:54.113Z,11.00
2019-03-08T22:04:34.628Z,10.17
2019-03-08T22:07:04.463Z,8.60
2019-03-08T22:09:54.235Z,7.37
2019-03-08T22:12:24.158Z,7.90
2019-03-08T22:14:53.936Z,8.90
2019-03-08T22:17:23.645Z,8.30
2019-03-08T22:19:53.090Z,8.73
2019-03-08T22:22:23.267Z,8.83
2019-03-08T22:24:52.379Z,10.40
2019-03-08T22:27:21.507Z,10.33
2019-03-08T22:29:51.282Z,8.57
2019-03-08T22:32:21.518Z,8.83
2019-03-08T22:34:51.434Z,7.90
2019-03-08T22:37:20.514Z,8.00
2019-03-08T22:39:50.362Z,7.87
2019-03-08T22:42:20.067Z,8.00
2019-03-08T22:44:49.910Z,8.50
2019-03-08T22:47:19.967Z,8.37
2019-03-08T22:49:50.119Z,8.70
2019-03-08T22:52:19.543Z,8.63
2019-03-08T22:54:49.640Z,8.33
2019-03-08T22:57:19.180Z,8.67
2019-03-08T22:59:49.182Z,9.13
2019-03-08T23:02:18.776Z,8.60
2019-03-08T23:04:48.676Z,8.50
2019-03-08T23:07:18.109Z,9.40
2019-03-08T23:09:48.099Z,8.53
2019-03-08T23:12:17.662Z,8.60
2019-03-08T23:14:47.262Z,9.43
2019-03-08T23:17:17.784Z,9.20
2019-03-08T23:19:47.476Z,9.50
2019-03-08T23:22:16.923Z,9.30
2019-03-08T23:24:47.136Z,10.03
2019-03-08T23:27:24.239Z,8.70
2019-03-08T23:29:59.761Z,9.03
2019-03-08T23:32:38.630Z,10.43
2019-03-08T23:35:08.073Z,9.87
2019-03-08T23:37:37.160Z,9.40
2019-03-08T23:40:07.095Z,9.27
2019-03-08T23:42:36.274Z,9.53
2019-03-08T23:45:06.303Z,10.20
2019-03-08T23:47:35.919Z,9.40
2019-03-08T23:50:05.953Z,9.37
2019-03-08T23:52:36.236Z,9.13
2019-03-08T23:55:05.981Z,9.80
2019-03-08T23:57:35.823Z,9.70
